Main page
METAR-TAF:

METAR-TAF

Airports :

Reykjavík, Iceland

Reykjavík Airport

latitude: 64-08N, longitude: 021-54W, elevation: 54 m

Current weather observation

The report was made 1 hour and 5 minutes ago, at 05:00 UTC
Wind 3 kt from the East, varying between East and Southeast
Temperature 4°C
Humidity 81%
Pressure 995 hPa
Visibility 10 km or more
no clouds below 1500 m and no cumulonimbus

METAR: BIRK 240500Z 10003KT 080V140 CAVOK 04/01 Q0995

Time: 06:05 (06:05 UTC)

Forecast

The report was made 1 hour and 24 minutes ago, at 04:41 UTC
Forecast valid from 24 at 06 UTC to 25 at 06 UTC
Wind 5 kt from the East
Visibility 10 km or more
no clouds below 1500 m and no cumulonimbus

TAF: BIRK 240441Z 2406/2506 09005KT CAVOK TX09/2415Z TN01/2506Z

Weather observations and forecasts of more than 4000 airports (METAR and TAF reports).

The available stations are represented by yellow and red dots on the map.

Hover mouse over dot to see the name of the station.

Then click to see weather observations and forecasts.

To change the map : click on the green buttons with a black cross to zoom in, on the green button with a dash to zoom out, or on the green arrows for adjacent maps.


METAR-TAF: